Pagina principale
METAR-TAF:

METAR-TAF

Aeroporti :

Aeroporto Internazionale Simón Bolívar

Caracas, Venezuela

latitudine: 10-36N, longitudine: 066-59W, altezza: 43 m

Osservazione

Il bollettino è stato emesso 22 minuti fa, alle 02:00 UTC
Vento calmo
Temperature 26°C
Umidità 89%
Pressione 1011 hPa
Visibilità 10 km o più
Poco nuvoloso ad un'altezza di 1600 ft

METAR: SVMI 160200Z 00000KT 9999 FEW016 26/24 Q1011

Ora: 22:22 (02:22 UTC)

Previsione

Il bollettino è stato emesso 4 ore e 22 minuti fa, alle 22:00 UTC
Previsione valida dal 16 alle 00 UTC al 17 alle 00 UTC
Vento 4 kt da nord
Visibilità 10 km o più
Nubi sparse ad un'altezza di 1600 ft
Evoluzione graduale
dal 16 alle 04 UTC al 16 alle 08 UTC
Vento 8 kt da ovest/sud-ovest
Visibilità: 9000 m
Nuvoloso ad un'altezza di 2000 ft
Nubi sparse ad un'altezza di 1600 ft
pioviggine debole

TAF: SVMI 152200Z 1600/1700 36004KT 9999 SCT016 TX30/18Z TN23/08Z BECMG 1604/1608 25008KT 9000 -DZ BKN020 SCT016

Osservazioni e previsioni meteorologiche di più di 4000 aeroporti (messaggi METAR e TAF).

Le stazioni disponibili sono rappresentate dai dischi gialli e rossi sulla carta.

Puntare il mouse per vedere il nome della stazione.

Clicca sopra per visualizzare le osservazioni e previsioni meteorologiche.

Per cambiare la mappa : fare clic sui pulsanti verdi con una croce nera per ingrandire, il pulsante verde con un trattino per diminuire, o sulla freccia verde per le mappe adiacenti.


METAR-TAF: